Time;durP1;ratioP1;P1;durP2;ratioP2;P2;SDS_P1;SDS_P2;PMS_P1;PMS_P2;Temp;Humidity;BMP_temperature;BMP_pressure;BME280_temperature;BME280_humidity;BME280_pressure;Samples;Min_cycle;Max_cycle;Signal;HPM_P1;HPM_P2
2022/10/17 00:00:33;;;;;;;21.10;16.20;;;;;;;11.95;89.98;101406.48;88487;1300;22554;-75
2022/10/17 00:03:02;;;;;;;19.70;15.00;;;;;;;11.90;90.06;101407.31;88452;1306;22240;-75
2022/10/17 00:05:11;;;;;;;21.90;15.50;;;;;;;11.86;90.12;101412.48;88542;1301;22123;-75
2022/10/17 00:07:20;;;;;;;20.10;16.70;;;;;;;11.83;90.22;101412.55;88760;1280;21890;-75
2022/10/17 00:09:29;;;;;;;21.10;15.50;;;;;;;11.80;90.15;101414.02;88562;1305;21798;-75
2022/10/17 00:11:38;;;;;;;20.40;16.00;;;;;;;11.78;90.40;101413.91;88552;1298;22050;-75
2022/10/17 00:13:49;;;;;;;18.90;15.80;;;;;;;11.75;90.23;101416.41;88644;1299;22097;-75
2022/10/17 00:15:58;;;;;;;20.60;16.60;;;;;;;11.72;90.31;101415.97;88765;1298;22568;-75
2022/10/17 00:18:07;;;;;;;21.10;16.10;;;;;;;11.70;90.44;101416.02;88551;1291;22058;-75
2022/10/17 00:20:16;;;;;;;25.40;17.60;;;;;;;11.70;90.50;101412.17;88751;1287;22037;-75
2022/10/17 00:22:25;;;;;;;18.80;16.00;;;;;;;11.71;90.65;101407.43;88788;1297;22014;-75
2022/10/17 00:24:35;;;;;;;20.80;15.40;;;;;;;11.71;90.68;101412.16;88784;1297;22038;-75
2022/10/17 00:26:43;;;;;;;27.30;17.20;;;;;;;11.70;90.76;101408.51;88539;1306;22084;-75
2022/10/17 00:28:53;;;;;;;19.40;14.80;;;;;;;11.69;90.82;101405.23;88426;1301;22072;-75
2022/10/17 00:31:03;;;;;;;23.40;16.50;;;;;;;11.66;90.69;101408.60;88542;1305;22114;-75
2022/10/17 00:33:12;;;;;;;19.70;16.50;;;;;;;11.64;91.01;101412.17;88524;1298;22631;-75
2022/10/17 00:35:21;;;;;;;22.20;15.20;;;;;;;11.62;90.94;101417.64;88763;1288;22076;-75
2022/10/17 00:37:31;;;;;;;21.30;16.10;;;;;;;11.61;91.07;101417.48;88520;1301;22067;-75
2022/10/17 00:39:40;;;;;;;24.20;16.00;;;;;;;11.61;91.32;101428.66;88641;1299;22744;-75
2022/10/17 00:41:48;;;;;;;25.40;17.10;;;;;;;11.61;91.37;101439.30;88531;1306;22688;-75
2022/10/17 00:44:00;;;;;;;24.80;17.10;;;;;;;11.64;91.62;101445.71;88639;1299;22126;-75
2022/10/17 00:46:09;;;;;;;28.30;16.50;;;;;;;11.68;91.63;101444.23;88553;1306;22076;-75
2022/10/17 00:48:17;;;;;;;31.70;17.70;;;;;;;11.70;91.72;101439.62;88778;1294;22180;-75
2022/10/17 00:50:27;;;;;;;22.40;16.90;;;;;;;11.73;91.73;101434.15;88570;1306;22179;-75
2022/10/17 00:52:35;;;;;;;19.80;17.20;;;;;;;11.73;91.85;101435.19;88781;1285;22032;-75
2022/10/17 00:54:45;;;;;;;21.80;16.70;;;;;;;11.75;91.87;101433.91;88571;1306;22063;-75
2022/10/17 00:56:52;;;;;;;;;;;;;;;11.76;91.95;101433.17;88551;1305;22205;-75
2022/10/17 00:59:01;;;;;;;23.70;18.40;;;;;;;11.75;92.13;101426.23;88564;1306;22057;-75
2022/10/17 01:01:10;;;;;;;23.10;17.50;;;;;;;11.78;92.41;101428.23;88543;1306;22057;-75
2022/10/17 01:03:19;;;;;;;22.40;18.30;;;;;;;11.81;92.45;101429.73;88549;1299;22089;-75
2022/10/17 01:05:28;;;;;;;22.10;18.70;;;;;;;11.83;92.37;101427.61;88563;1299;22562;-75
2022/10/17 01:07:37;;;;;;;18.80;16.00;;;;;;;11.85;92.33;101426.34;88780;1297;22098;-75
2022/10/17 01:09:46;;;;;;;24.50;17.30;;;;;;;11.85;92.32;101422.30;88555;1301;22176;-75
2022/10/17 01:11:59;;;;;;;24.60;17.40;;;;;;;11.84;92.22;101423.02;88630;1299;21964;-75
2022/10/17 01:14:10;;;;;;;21.20;17.70;;;;;;;11.84;92.21;101427.21;88748;1299;22665;-75
2022/10/17 01:16:23;;;;;;;25.90;17.20;;;;;;;11.86;92.47;101430.66;88534;1306;22126;-75
2022/10/17 01:18:46;;;;;;;19.50;17.40;;;;;;;11.87;92.25;101429.59;88534;1306;22145;-75
2022/10/17 01:21:13;;;;;;;22.80;17.50;;;;;;;11.89;92.43;101429.73;88771;1287;22588;-75
2022/10/17 01:23:31;;;;;;;22.80;16.80;;;;;;;11.90;92.47;101425.34;88785;1288;22029;-75
2022/10/17 01:25:43;;;;;;;20.40;17.10;;;;;;;11.89;92.41;101421.51;88786;1297;22040;-75
2022/10/17 01:28:22;;;;;;;20.70;16.10;;;;;;;11.87;92.33;101420.67;88753;1297;22688;-75
2022/10/17 01:31:07;;;;;;;20.90;17.10;;;;;;;11.84;92.35;101419.36;88623;1299;22123;-75
2022/10/17 01:33:17;;;;;;;23.10;16.20;;;;;;;11.81;92.36;101421.86;88549;1298;22583;-75
2022/10/17 01:35:28;;;;;;;25.20;15.10;;;;;;;11.82;92.55;101420.63;88657;1299;22120;-75
2022/10/17 01:37:40;;;;;;;23.10;17.50;;;;;;;11.82;92.51;101420.80;88772;1288;22039;-75
2022/10/17 01:39:52;;;;;;;21.90;16.70;;;;;;;11.82;92.55;101427.79;88560;1306;22031;-75
2022/10/17 01:42:04;;;;;;;19.70;17.20;;;;;;;11.82;92.58;101422.72;88789;1297;22055;-75
2022/10/17 01:44:14;;;;;;;20.10;16.30;;;;;;;11.83;92.58;101421.66;88568;1294;22059;-75
2022/10/17 01:46:27;;;;;;;18.40;16.30;;;;;;;11.81;92.49;101414.71;88531;1301;22048;-76
2022/10/17 01:48:37;;;;;;;17.20;14.90;;;;;;;11.78;92.32;101418.27;88522;1305;22536;-76
2022/10/17 01:50:48;;;;;;;22.90;17.10;;;;;;;11.75;92.45;101421.66;88552;1306;22049;-75
2022/10/17 01:52:59;;;;;;;23.80;16.40;;;;;;;11.74;92.53;101423.27;88757;1288;22041;-75
2022/10/17 01:55:10;;;;;;;23.60;16.50;;;;;;;11.72;92.44;101427.35;88549;1305;22066;-75
2022/10/17 01:57:27;;;;;;;18.40;15.30;;;;;;;11.70;92.54;101430.88;88520;1305;22091;-75
2022/10/17 01:59:39;;;;;;;19.90;15.70;;;;;;;11.67;92.44;101428.70;88541;1299;22066;-76
2022/10/17 02:01:50;;;;;;;22.30;14.70;;;;;;;11.64;92.36;101428.78;88754;1297;22017;-76
2022/10/17 02:03:59;;;;;;;30.10;15.30;;;;;;;11.59;92.37;101428.35;88739;1297;22497;-75
2022/10/17 02:06:08;;;;;;;20.10;14.00;;;;;;;11.56;92.37;101426.68;88537;1306;22619;-75
2022/10/17 02:08:26;;;;;;;26.40;14.80;;;;;;;11.53;92.35;101427.47;88641;1284;22059;-75
2022/10/17 02:10:42;;;;;;;18.70;15.10;;;;;;;11.49;92.25;101431.77;88545;1306;22071;-75
2022/10/17 02:12:54;;;;;;;16.80;14.30;;;;;;;11.46;92.25;101432.55;88771;1294;22553;-75
2022/10/17 02:15:14;;;;;;;19.60;14.50;;;;;;;11.42;92.28;101430.20;88762;1297;22048;-75
2022/10/17 02:17:30;;;;;;;17.80;13.00;;;;;;;11.39;92.34;101435.15;88561;1306;22619;-75
2022/10/17 02:19:49;;;;;;;14.90;13.30;;;;;;;11.35;92.31;101434.20;88533;1306;22201;-76
2022/10/17 02:22:06;;;;;;;26.60;14.60;;;;;;;11.31;92.24;101434.11;88541;1306;22080;-76
2022/10/17 02:24:20;;;;;;;25.40;13.60;;;;;;;11.28;92.16;101433.50;88554;1297;22299;-75
2022/10/17 02:26:32;;;;;;;18.30;14.30;;;;;;;11.24;92.20;101436.38;88801;1288;22060;-75
2022/10/17 02:28:44;;;;;;;22.50;16.00;;;;;;;11.22;92.59;101441.69;88544;1306;22074;-75
2022/10/17 02:30:59;;;;;;;19.60;13.90;;;;;;;11.21;92.56;101444.86;88560;1298;22098;-75
2022/10/17 02:33:10;;;;;;;19.80;13.80;;;;;;;11.18;92.35;101444.77;88552;1305;22076;-75
2022/10/17 02:35:19;;;;;;;16.60;13.30;;;;;;;11.14;92.27;101444.85;88540;1306;22069;-75
2022/10/17 02:37:32;;;;;;;22.70;13.80;;;;;;;11.10;92.28;101453.65;88784;1278;22020;-75
2022/10/17 02:39:41;;;;;;;20.40;14.10;;;;;;;11.07;92.45;101456.52;88547;1305;22081;-75
2022/10/17 02:41:50;;;;;;;18.00;13.30;;;;;;;11.05;92.45;101460.76;88776;1297;22737;-75
2022/10/17 02:43:58;;;;;;;19.20;14.10;;;;;;;11.02;92.41;101462.39;88662;1294;22087;-75
2022/10/17 02:46:07;;;;;;;19.20;15.00;;;;;;;11.01;92.69;101460.68;88758;1297;22602;-75
2022/10/17 02:48:20;;;;;;;19.70;14.80;;;;;;;11.00;92.79;101466.81;88439;1306;22207;-75
2022/10/17 02:50:36;;;;;;;25.90;14.40;;;;;;;10.98;92.64;101466.33;88554;1299;22052;-75
2022/10/17 02:52:48;;;;;;;18.50;13.20;;;;;;;10.94;92.39;101466.58;88550;1305;22066;-75
2022/10/17 02:55:00;;;;;;;20.00;14.70;;;;;;;10.91;92.67;101477.14;88555;1305;22696;-75
2022/10/17 02:57:12;;;;;;;17.60;14.90;;;;;;;10.88;92.57;101488.38;88762;1299;22128;-75
2022/10/17 02:59:22;;;;;;;18.60;15.20;;;;;;;10.86;92.66;101497.66;88742;1288;22025;-75
2022/10/17 03:01:31;;;;;;;19.70;16.80;;;;;;;10.84;92.84;101503.09;88547;1298;22049;-75
2022/10/17 03:03:40;;;;;;;28.60;17.30;;;;;;;10.85;92.99;101503.44;88553;1298;22124;-75
2022/10/17 03:05:48;;;;;;;21.10;16.60;;;;;;;10.85;93.14;101504.14;88639;1299;22063;-75
2022/10/17 03:07:57;;;;;;;19.20;15.00;;;;;;;10.84;93.08;101501.02;88751;1297;22687;-75
2022/10/17 03:10:08;;;;;;;19.30;14.60;;;;;;;10.81;92.89;101501.59;88543;1306;22075;-75
2022/10/17 03:12:16;;;;;;;20.10;14.30;;;;;;;10.78;92.81;101506.55;88633;1299;22120;-75
2022/10/17 03:14:25;;;;;;;18.50;14.60;;;;;;;10.75;92.72;101506.80;88775;1287;22008;-75
2022/10/17 03:16:34;;;;;;;19.00;15.50;;;;;;;10.71;92.67;101501.64;88758;1299;22745;-75
2022/10/17 03:18:43;;;;;;;23.40;16.20;;;;;;;10.69;92.79;101506.05;88785;1297;22047;-75
2022/10/17 03:20:52;;;;;;;19.10;15.30;;;;;;;10.66;92.61;101505.77;88566;1306;22839;-75
2022/10/17 03:23:00;;;;;;;18.60;14.90;;;;;;;10.62;92.63;101510.20;88564;1306;22050;-75
2022/10/17 03:25:10;;;;;;;20.30;15.20;;;;;;;10.59;92.78;101503.45;88748;1290;22097;-75
2022/10/17 03:27:19;;;;;;;18.90;15.30;;;;;;;10.59;93.03;101503.63;88531;1298;22065;-75
2022/10/17 03:29:28;;;;;;;22.00;16.30;;;;;;;10.60;93.23;101501.86;88526;1298;22157;-75
2022/10/17 03:31:36;;;;;;;22.90;15.90;;;;;;;10.63;93.62;101502.51;88741;1294;22175;-75
2022/10/17 03:33:46;;;;;;;19.10;14.30;;;;;;;10.67;93.74;101502.60;88763;1287;22080;-75
2022/10/17 03:35:55;;;;;;;21.30;14.90;;;;;;;10.72;94.05;101500.58;88758;1289;21914;-75
2022/10/17 03:38:03;;;;;;;18.90;15.60;;;;;;;10.77;94.34;101500.62;88615;1299;22121;-75
2022/10/17 03:40:13;;;;;;;25.80;18.80;;;;;;;10.84;94.62;101502.23;88534;1301;22079;-75
2022/10/17 03:42:22;;;;;;;23.40;19.40;;;;;;;10.94;95.21;101502.04;88542;1298;21963;-76
2022/10/17 03:44:31;;;;;;;24.80;19.30;;;;;;;11.01;95.10;101492.80;88538;1298;22119;-76
2022/10/17 03:46:40;;;;;;;26.70;19.60;;;;;;;11.08;95.53;101487.40;88764;1299;22056;-76
2022/10/17 03:48:49;;;;;;;27.50;20.50;;;;;;;11.16;95.68;101491.95;88759;1284;22063;-76
2022/10/17 03:51:02;;;;;;;26.20;20.70;;;;;;;11.22;95.79;101494.42;88757;1294;22042;-75
2022/10/17 03:53:12;;;;;;;24.90;20.80;;;;;;;11.28;95.98;101499.70;88561;1298;22059;-75
2022/10/17 03:55:20;;;;;;;23.80;21.20;;;;;;;11.34;95.87;101500.61;88564;1305;22097;-74
2022/10/17 03:57:29;;;;;;;23.80;19.50;;;;;;;11.40;95.87;101503.98;88545;1306;22079;-74
2022/10/17 03:59:38;;;;;;;22.70;18.20;;;;;;;11.44;95.85;101508.42;88565;1305;22652;-75
2022/10/17 04:01:47;;;;;;;23.40;18.30;;;;;;;11.47;95.58;101508.88;88580;1298;22132;-75
2022/10/17 04:03:57;;;;;;;23.40;18.10;;;;;;;11.49;95.73;101514.77;88579;1306;22077;-75
2022/10/17 04:06:07;;;;;;;26.40;20.10;;;;;;;11.52;95.79;101513.82;88553;1298;22060;-76
2022/10/17 04:08:16;;;;;;;24.00;18.70;;;;;;;11.55;96.16;101519.35;88772;1287;22035;-76
2022/10/17 04:10:25;;;;;;;26.00;20.30;;;;;;;11.58;96.01;101523.48;88791;1288;21933;-75
2022/10/17 04:12:34;;;;;;;26.40;19.40;;;;;;;11.61;96.20;101526.00;88540;1306;22067;-75
2022/10/17 04:14:43;;;;;;;25.80;20.00;;;;;;;11.63;96.16;101525.62;88547;1305;22072;-75
2022/10/17 04:16:52;;;;;;;26.20;19.00;;;;;;;11.66;96.01;101529.39;88764;1297;22079;-75
2022/10/17 04:19:01;;;;;;;24.30;18.90;;;;;;;11.69;95.96;101529.15;88548;1305;21667;-74
2022/10/17 04:21:10;;;;;;;25.50;18.90;;;;;;;11.71;95.98;101526.66;88622;1299;22721;-71
2022/10/17 04:23:19;;;;;;;25.70;19.20;;;;;;;11.75;96.08;101522.71;88626;1299;22678;-71
2022/10/17 04:25:27;;;;;;;24.80;18.40;;;;;;;11.78;96.23;101520.36;88747;1298;22048;-71
2022/10/17 04:27:36;;;;;;;26.60;20.30;;;;;;;11.83;96.27;101518.89;88746;1299;22046;-74
2022/10/17 04:29:45;;;;;;;26.00;18.80;;;;;;;11.86;96.30;101515.28;88759;1287;22043;-74
2022/10/17 04:31:54;;;;;;;24.50;19.90;;;;;;;11.89;96.30;101513.29;88524;1305;22074;-74
2022/10/17 04:34:03;;;;;;;23.50;19.10;;;;;;;11.92;96.36;101516.73;88523;1297;22063;-74
2022/10/17 04:36:15;;;;;;;34.60;21.50;;;;;;;11.94;96.31;101522.09;88532;1305;22643;-74
2022/10/17 04:38:24;;;;;;;29.30;20.10;;;;;;;11.97;96.31;101524.11;88620;1299;22764;-74
2022/10/17 04:40:33;;;;;;;25.80;19.70;;;;;;;11.99;96.22;101524.08;88548;1306;22659;-74
2022/10/17 04:42:42;;;;;;;23.20;18.50;;;;;;;11.99;96.15;101527.03;88534;1292;22082;-74
2022/10/17 04:44:51;;;;;;;24.00;18.40;;;;;;;11.99;95.94;101530.90;88553;1305;22071;-74
2022/10/17 04:46:59;;;;;;;24.00;20.00;;;;;;;11.96;95.85;101537.95;88774;1294;22081;-74
2022/10/17 04:49:08;;;;;;;19.90;17.80;;;;;;;11.96;95.87;101545.64;88788;1291;22029;-74
2022/10/17 04:51:18;;;;;;;24.30;19.20;;;;;;;11.97;95.92;101547.73;88743;1276;22051;-74
2022/10/17 04:53:27;;;;;;;24.10;19.40;;;;;;;11.98;95.69;101551.02;88552;1305;22059;-75
2022/10/17 04:55:40;;;;;;;23.60;19.20;;;;;;;11.99;95.69;101554.52;88545;1300;22710;-75
2022/10/17 04:57:49;;;;;;;24.00;19.90;;;;;;;11.99;95.62;101552.60;88446;1306;22695;-75
2022/10/17 04:59:58;;;;;;;27.80;19.20;;;;;;;11.98;95.60;101556.62;88537;1306;22678;-75
2022/10/17 05:02:06;;;;;;;22.20;18.00;;;;;;;11.98;95.71;101562.23;88554;1301;22059;-75
2022/10/17 05:04:15;;;;;;;26.30;19.20;;;;;;;11.97;95.54;101561.02;88768;1299;22031;-75
2022/10/17 05:06:27;;;;;;;28.10;18.90;;;;;;;11.94;95.39;101562.30;88750;1287;22041;-75
2022/10/17 05:08:35;;;;;;;24.50;17.30;;;;;;;11.92;95.34;101571.11;88532;1298;22067;-75
2022/10/17 05:10:45;;;;;;;28.80;19.10;;;;;;;11.90;95.24;101577.61;88543;1299;22729;-75
2022/10/17 05:12:53;;;;;;;24.70;19.90;;;;;;;11.89;95.38;101576.95;88544;1306;22078;-73
2022/10/17 05:15:02;;;;;;;21.90;17.80;;;;;;;11.89;95.15;101577.15;88778;1287;22125;-73
2022/10/17 05:17:11;;;;;;;21.60;17.50;;;;;;;11.88;95.22;101569.09;88765;1299;22038;-73
2022/10/17 05:19:20;;;;;;;20.50;17.30;;;;;;;11.86;95.11;101563.38;88784;1296;22086;-74
2022/10/17 05:21:30;;;;;;;20.00;16.70;;;;;;;11.86;95.10;101566.36;88524;1298;22728;-74
2022/10/17 05:23:39;;;;;;;19.30;16.20;;;;;;;11.84;95.26;101563.95;88757;1294;22059;-74
2022/10/17 05:25:48;;;;;;;23.00;18.50;;;;;;;11.83;95.29;101572.02;88543;1306;22073;-74
2022/10/17 05:27:56;;;;;;;19.70;17.30;;;;;;;11.82;95.36;101575.52;88770;1293;22076;-74
2022/10/17 05:30:07;;;;;;;21.80;17.90;;;;;;;11.82;95.29;101583.23;88787;1299;22030;-73
2022/10/17 05:32:17;;;;;;;22.50;18.10;;;;;;;11.81;95.44;101590.41;88745;1297;22814;-72
2022/10/17 05:34:26;;;;;;;19.40;16.40;;;;;;;11.81;95.46;101600.19;88548;1298;22103;-72
2022/10/17 05:36:35;;;;;;;21.90;17.70;;;;;;;11.80;95.28;101608.08;88796;1288;22021;-72
2022/10/17 05:38:44;;;;;;;26.60;19.80;;;;;;;11.81;95.47;101615.21;88768;1287;22017;-72
2022/10/17 05:40:56;;;;;;;22.40;18.20;;;;;;;11.86;95.82;101621.08;88552;1306;22089;-72
2022/10/17 05:43:06;;;;;;;26.60;17.80;;;;;;;11.91;95.87;101619.05;88789;1298;22045;-73
2022/10/17 05:45:15;;;;;;;22.40;18.20;;;;;;;11.93;95.87;101619.18;88558;1305;22143;-72
2022/10/17 05:47:23;;;;;;;21.60;17.40;;;;;;;11.97;96.13;101617.86;88776;1291;22101;-72
2022/10/17 05:49:32;;;;;;;23.10;18.20;;;;;;;12.02;96.09;101618.44;88782;1299;22670;-74
2022/10/17 05:51:41;;;;;;;23.80;17.20;;;;;;;12.06;96.32;101614.83;88779;1281;22024;-73
2022/10/17 05:53:51;;;;;;;24.50;17.30;;;;;;;12.11;96.29;101619.77;88544;1306;22621;-73
2022/10/17 05:56:02;;;;;;;25.00;16.80;;;;;;;12.16;96.45;101618.10;88546;1306;22074;-73
2022/10/17 05:58:11;;;;;;;22.10;16.90;;;;;;;12.20;96.39;101615.90;88535;1306;22070;-73
2022/10/17 06:00:20;;;;;;;23.50;18.30;;;;;;;12.25;96.48;101611.92;88775;1285;22057;-73
2022/10/17 06:02:30;;;;;;;21.80;16.20;;;;;;;12.29;96.54;101606.90;88764;1299;22027;-73
2022/10/17 06:04:44;;;;;;;27.60;18.20;;;;;;;12.37;96.59;101611.77;88780;1288;22035;-73
2022/10/17 06:06:55;;;;;;;24.20;18.70;;;;;;;12.45;96.73;101618.41;88769;1288;22045;-74
2022/10/17 06:09:03;;;;;;;24.40;18.60;;;;;;;12.51;96.82;101625.43;88536;1298;22052;-74
2022/10/17 06:11:12;;;;;;;25.90;19.50;;;;;;;12.57;96.95;101628.77;88520;1306;22142;-74
2022/10/17 06:13:21;;;;;;;28.00;20.40;;;;;;;12.66;96.96;101630.62;88535;1306;22648;-74
2022/10/17 06:15:30;;;;;;;20.10;17.00;;;;;;;12.76;97.01;101631.24;88549;1301;22089;-74
2022/10/17 06:17:39;;;;;;;21.80;18.30;;;;;;;12.83;97.08;101629.47;88759;1290;22034;-74
2022/10/17 06:19:48;;;;;;;25.50;19.20;;;;;;;12.93;97.04;101623.42;88561;1306;22070;-74
2022/10/17 06:21:57;;;;;;;27.90;20.00;;;;;;;12.99;96.98;101619.05;88790;1288;22089;-74
2022/10/17 06:24:06;;;;;;;21.40;18.90;;;;;;;13.05;97.10;101617.83;88775;1287;22027;-74
2022/10/17 06:26:15;;;;;;;27.20;19.90;;;;;;;13.14;97.10;101617.94;88529;1305;22126;-74
2022/10/17 06:28:23;;;;;;;25.10;20.70;;;;;;;13.22;97.10;101624.91;88768;1288;22053;-74
2022/10/17 06:30:32;;;;;;;28.80;20.80;;;;;;;13.31;97.24;101634.81;88758;1284;22036;-74
2022/10/17 06:32:41;;;;;;;28.60;22.70;;;;;;;13.41;97.33;101637.67;88770;1299;22840;-74
2022/10/17 06:34:50;;;;;;;29.10;23.70;;;;;;;13.52;97.56;101640.16;88566;1306;22091;-74
2022/10/17 06:36:58;;;;;;;29.80;22.60;;;;;;;13.63;97.74;101637.01;88763;1299;22643;-75
2022/10/17 06:39:08;;;;;;;34.60;23.50;;;;;;;13.74;97.44;101637.04;88760;1292;22032;-74
2022/10/17 06:41:18;;;;;;;32.80;23.90;;;;;;;13.85;97.45;101634.92;88533;1306;21977;-74
2022/10/17 06:43:27;;;;;;;31.90;24.60;;;;;;;13.97;97.42;101636.65;88768;1292;22054;-74
2022/10/17 06:45:35;;;;;;;28.40;21.90;;;;;;;14.09;97.35;101644.70;88528;1297;22075;-74
2022/10/17 06:47:44;;;;;;;34.20;24.90;;;;;;;14.21;97.05;101648.70;88526;1300;22064;-74
2022/10/17 06:49:53;;;;;;;34.90;24.10;;;;;;;14.33;97.08;101654.44;88629;1299;22540;-74
2022/10/17 06:52:02;;;;;;;31.70;24.20;;;;;;;14.45;96.99;101658.43;88751;1294;22057;-74
2022/10/17 06:54:11;;;;;;;31.50;22.70;;;;;;;14.56;96.93;101657.90;88753;1291;22077;-74
2022/10/17 06:56:20;;;;;;;32.80;24.40;;;;;;;14.66;96.38;101658.26;88534;1304;22084;-74
2022/10/17 06:58:29;;;;;;;26.90;22.00;;;;;;;14.77;96.13;101656.50;88620;1300;22653;-74
2022/10/17 07:00:38;;;;;;;29.20;21.50;;;;;;;14.87;95.92;101657.02;88783;1299;22045;-74
2022/10/17 07:02:47;;;;;;;30.50;23.40;;;;;;;15.01;95.53;101657.75;88530;1302;22143;-74
2022/10/17 07:04:56;;;;;;;31.40;21.40;;;;;;;15.19;94.83;101656.04;88466;1297;22642;-74
2022/10/17 07:07:05;;;;;;;31.40;22.90;;;;;;;15.30;94.32;101655.11;88467;1297;22110;-74
2022/10/17 07:09:14;;;;;;;29.20;21.90;;;;;;;15.40;93.98;101657.20;88486;1297;22102;-74
2022/10/17 07:11:24;;;;;;;27.60;21.90;;;;;;;15.50;93.19;101656.64;88724;1299;22056;-74
2022/10/17 07:13:33;;;;;;;30.50;21.50;;;;;;;15.58;92.64;101659.48;88706;1293;22080;-74
2022/10/17 07:15:42;;;;;;;26.60;20.90;;;;;;;15.66;92.15;101659.73;88716;1299;22020;-74
2022/10/17 07:17:53;;;;;;;29.50;21.50;;;;;;;15.77;92.07;101656.69;88729;1299;22036;-74
2022/10/17 07:20:01;;;;;;;28.50;22.60;;;;;;;15.91;91.96;101656.64;88719;1299;22659;-74
2022/10/17 07:22:11;;;;;;;27.70;20.50;;;;;;;16.08;91.59;101654.23;88475;1306;22068;-74
2022/10/17 07:24:19;;;;;;;25.80;20.60;;;;;;;16.31;91.15;101651.86;88461;1306;22081;-74
2022/10/17 07:26:28;;;;;;;28.00;20.10;;;;;;;16.66;90.24;101652.69;88632;1290;22036;-74
2022/10/17 07:28:37;;;;;;;23.20;19.80;;;;;;;17.11;89.75;101652.50;88713;1299;22042;-74
2022/10/17 07:30:46;;;;;;;24.90;20.20;;;;;;;17.52;88.80;101654.64;88712;1299;22078;-74
2022/10/17 07:32:57;;;;;;;23.10;18.20;;;;;;;17.86;88.04;101656.45;88729;1299;22191;-74
2022/10/17 07:35:06;;;;;;;27.20;20.70;;;;;;;18.19;86.35;101665.98;88558;1293;22210;-74
2022/10/17 07:37:15;;;;;;;30.10;20.40;;;;;;;18.57;86.48;101668.49;88546;1302;22097;-74
2022/10/17 07:39:24;;;;;;;27.60;18.70;;;;;;;18.98;84.51;101667.48;88450;1306;22071;-74
2022/10/17 07:41:33;;;;;;;24.10;18.20;;;;;;;19.31;82.36;101668.70;88699;1299;22022;-74
2022/10/17 07:43:42;;;;;;;21.70;19.40;;;;;;;19.62;80.63;101668.98;88691;1288;22422;-74
2022/10/17 07:45:50;;;;;;;22.10;17.00;;;;;;;19.92;78.27;101672.97;88709;1290;22083;-74
2022/10/17 07:48:00;;;;;;;22.80;17.60;;;;;;;20.24;77.50;101676.84;88441;1301;21968;-75
2022/10/17 07:50:08;;;;;;;;;;;;;;;20.70;77.20;101674.30;88453;1295;339817;-75
2022/10/17 07:52:17;;;;;;;24.50;16.40;;;;;;;21.14;75.84;101674.83;88620;1300;22796;-75
2022/10/17 07:54:26;;;;;;;21.80;17.90;;;;;;;21.37;73.33;101676.63;88718;1299;22042;-76
2022/10/17 07:56:35;;;;;;;21.60;17.40;;;;;;;21.70;72.03;101680.40;88463;1306;21944;-77
2022/10/17 07:58:44;;;;;;;22.30;17.80;;;;;;;22.16;71.10;101680.80;88586;1302;22661;-76
2022/10/17 08:00:53;;;;;;;20.50;16.70;;;;;;;22.45;69.75;101684.23;88695;1299;22087;-75
2022/10/17 08:03:02;;;;;;;23.70;18.10;;;;;;;22.51;68.05;101690.71;88720;1299;22244;-75
2022/10/17 08:05:11;;;;;;;21.10;16.50;;;;;;;22.43;66.18;101688.26;88512;1306;22092;-74
2022/10/17 08:07:20;;;;;;;24.10;17.30;;;;;;;22.41;66.64;101690.69;88417;1295;22070;-77
2022/10/17 08:09:29;;;;;;;22.70;17.10;;;;;;;22.32;65.96;101690.09;88602;1299;22789;-75
2022/10/17 08:11:39;;;;;;;23.40;19.40;;;;;;;22.17;65.69;101690.14;88748;1299;22083;-76
2022/10/17 08:13:48;;;;;;;22.00;16.50;;;;;;;21.89;65.24;101692.52;88746;1299;22012;-76
2022/10/17 08:16:00;;;;;;;21.60;16.30;;;;;;;21.62;65.51;101694.59;88734;1300;22124;-76
2022/10/17 08:18:09;;;;;;;27.00;19.00;;;;;;;21.44;65.91;101695.90;88751;1293;22003;-75
2022/10/17 08:20:17;;;;;;;21.30;17.60;;;;;;;21.30;65.55;101699.07;88763;1299;22031;-76
2022/10/17 08:22:26;;;;;;;23.80;17.20;;;;;;;21.18;66.24;101699.29;88740;1287;22797;-76
2022/10/17 08:24:35;;;;;;;20.60;18.20;;;;;;;21.09;66.51;101694.85;88602;1297;22074;-76
2022/10/17 08:26:44;;;;;;;24.70;18.30;;;;;;;21.04;66.75;101694.08;88498;1307;22690;-76
2022/10/17 08:28:53;;;;;;;37.10;18.10;;;;;;;20.95;66.79;101696.05;88727;1280;22020;-76
2022/10/17 08:31:08;;;;;;;19.40;16.50;;;;;;;20.89;66.76;101693.73;88738;1295;22579;-76
2022/10/17 08:33:17;;;;;;;22.30;18.00;;;;;;;20.79;66.60;101689.37;88742;1297;22013;-76
2022/10/17 08:35:25;;;;;;;23.50;17.90;;;;;;;20.75;67.36;101691.02;88482;1306;22077;-76
2022/10/17 08:37:34;;;;;;;27.60;19.00;;;;;;;20.72;67.20;101689.98;88758;1297;22053;-76
2022/10/17 08:39:43;;;;;;;23.70;18.60;;;;;;;20.67;67.30;101688.34;88499;1304;22087;-76
2022/10/17 08:42:02;;;;;;;22.70;19.20;;;;;;;20.65;67.42;101685.08;88766;1292;22558;-77
2022/10/17 08:44:18;;;;;;;20.60;18.40;;;;;;;20.62;67.59;101686.15;88767;1299;22762;-76
2022/10/17 08:46:30;;;;;;;24.20;17.90;;;;;;;20.58;67.84;101689.01;88512;1306;22110;-76
2022/10/17 08:48:43;;;;;;;20.70;18.00;;;;;;;20.56;67.15;101688.61;88784;1299;22644;-76
2022/10/17 08:50:54;;;;;;;19.00;16.60;;;;;;;20.52;67.71;101682.83;88786;1291;22029;-76
2022/10/17 08:53:06;;;;;;;29.10;17.60;;;;;;;20.52;67.92;101682.51;88774;1294;22005;-76
2022/10/17 08:55:20;;;;;;;25.00;18.00;;;;;;;20.56;67.87;101687.39;88411;1307;22060;-76
2022/10/17 08:57:29;;;;;;;25.10;18.60;;;;;;;20.59;67.79;101687.54;88421;1307;22091;-76
2022/10/17 08:59:38;;;;;;;19.40;17.10;;;;;;;20.72;68.01;101684.16;88484;1304;22068;-76
2022/10/17 09:01:51;;;;;;;23.40;18.00;;;;;;;20.99;67.89;101680.90;88629;1293;22037;-76
2022/10/17 09:04:15;;;;;;;20.90;17.00;;;;;;;21.33;67.33;101674.91;88766;1300;22011;-76
2022/10/17 09:06:28;;;;;;;25.80;17.90;;;;;;;21.79;66.96;101675.01;88751;1299;22002;-76
2022/10/17 09:08:43;;;;;;;20.80;17.20;;;;;;;22.43;65.90;101677.08;88752;1300;22087;-76
2022/10/17 09:11:03;;;;;;;19.60;15.80;;;;;;;23.07;64.78;101670.71;88488;1307;23063;-76
2022/10/17 09:13:20;;;;;;;25.60;16.30;;;;;;;23.73;63.91;101669.09;88493;1301;22067;-76
2022/10/17 09:15:45;;;;;;;25.50;16.30;;;;;;;24.39;62.37;101668.84;88753;1302;22012;-77
2022/10/17 09:17:56;;;;;;;20.20;17.20;;;;;;;24.96;59.77;101666.09;88778;1302;22056;-77
2022/10/17 09:20:10;;;;;;;18.10;15.40;;;;;;;25.40;57.62;101662.23;88501;1313;22119;-77
2022/10/17 09:22:20;;;;;;;17.00;15.20;;;;;;;25.73;56.01;101664.63;88755;1302;22608;-77
2022/10/17 09:24:35;;;;;;;19.20;16.10;;;;;;;26.09;55.62;101663.05;88752;1292;22065;-77
2022/10/17 09:26:44;;;;;;;18.30;15.20;;;;;;;26.35;54.49;101666.64;88491;1307;22087;-77
2022/10/17 09:28:57;;;;;;;16.80;14.70;;;;;;;26.46;52.63;101666.57;88502;1306;22101;-77
2022/10/17 09:31:11;;;;;;;21.00;15.80;;;;;;;26.55;52.88;101664.39;88495;1306;22047;-78
2022/10/17 09:33:21;;;;;;;20.50;14.40;;;;;;;26.64;51.90;101661.63;88487;1307;22687;-78
2022/10/17 09:35:30;;;;;;;18.90;14.60;;;;;;;26.79;52.19;101654.69;88778;1290;22019;-77
2022/10/17 09:37:39;;;;;;;26.10;14.70;;;;;;;27.03;51.76;101656.30;88500;1311;22648;-77
2022/10/17 09:39:48;;;;;;;18.30;14.90;;;;;;;27.30;51.27;101658.84;88739;1294;22080;-77
2022/10/17 09:41:58;;;;;;;20.50;14.60;;;;;;;27.52;49.99;101656.98;88494;1313;22092;-77
2022/10/17 09:44:21;;;;;;;20.50;15.00;;;;;;;27.68;49.67;101657.52;88617;1304;22216;-77
2022/10/17 09:46:32;;;;;;;17.10;14.00;;;;;;;27.82;49.21;101654.34;88469;1306;22097;-76
2022/10/17 09:48:45;;;;;;;14.40;13.00;;;;;;;27.97;48.70;101652.29;88488;1309;22056;-76
2022/10/17 09:50:54;;;;;;;15.10;12.80;;;;;;;27.97;48.15;101652.46;88489;1307;22045;-76
2022/10/17 09:53:07;;;;;;;21.20;14.30;;;;;;;27.76;48.16;101650.08;88787;1289;22036;-76